sensor_id;sensor_type;location;lat;lon;timestamp;temperature;humidity
28837;DHT22;50669;50.982;11.022;2023-11-21T00:00:40;17.80;77.80
28837;DHT22;50669;50.982;11.022;2023-11-21T00:03:06;17.80;77.80
28837;DHT22;50669;50.982;11.022;2023-11-21T00:05:34;17.80;77.80
28837;DHT22;50669;50.982;11.022;2023-11-21T00:08:03;17.90;77.80
28837;DHT22;50669;50.982;11.022;2023-11-21T00:10:31;17.80;77.80
28837;DHT22;50669;50.982;11.022;2023-11-21T00:12:56;17.80;77.80
28837;DHT22;50669;50.982;11.022;2023-11-21T00:15:25;17.80;77.80
28837;DHT22;50669;50.982;11.022;2023-11-21T00:17:51;17.80;77.80
28837;DHT22;50669;50.982;11.022;2023-11-21T00:20:17;17.80;77.80
28837;DHT22;50669;50.982;11.022;2023-11-21T00:22:43;17.80;77.80
28837;DHT22;50669;50.982;11.022;2023-11-21T00:25:08;17.80;77.70
28837;DHT22;50669;50.982;11.022;2023-11-21T00:27:35;17.80;77.80
28837;DHT22;50669;50.982;11.022;2023-11-21T00:30:02;17.80;77.80
28837;DHT22;50669;50.982;11.022;2023-11-21T00:32:29;17.80;77.80
28837;DHT22;50669;50.982;11.022;2023-11-21T00:34:55;17.80;77.80
28837;DHT22;50669;50.982;11.022;2023-11-21T00:37:25;17.80;77.80
28837;DHT22;50669;50.982;11.022;2023-11-21T00:39:53;17.80;77.70
28837;DHT22;50669;50.982;11.022;2023-11-21T00:42:19;17.80;77.70
28837;DHT22;50669;50.982;11.022;2023-11-21T00:44:44;17.80;77.70
28837;DHT22;50669;50.982;11.022;2023-11-21T00:47:10;17.80;77.80
28837;DHT22;50669;50.982;11.022;2023-11-21T00:49:36;17.80;77.70
28837;DHT22;50669;50.982;11.022;2023-11-21T00:52:02;17.80;77.70
28837;DHT22;50669;50.982;11.022;2023-11-21T00:54:28;17.80;77.70
28837;DHT22;50669;50.982;11.022;2023-11-21T00:56:56;17.80;77.80
28837;DHT22;50669;50.982;11.022;2023-11-21T00:59:23;17.80;77.80
28837;DHT22;50669;50.982;11.022;2023-11-21T01:01:49;17.80;77.70
28837;DHT22;50669;50.982;11.022;2023-11-21T01:04:15;17.80;77.60
28837;DHT22;50669;50.982;11.022;2023-11-21T01:06:41;17.80;77.70
28837;DHT22;50669;50.982;11.022;2023-11-21T01:09:09;17.80;77.60
28837;DHT22;50669;50.982;11.022;2023-11-21T01:11:35;17.80;77.70
28837;DHT22;50669;50.982;11.022;2023-11-21T01:14:04;17.80;77.70
28837;DHT22;50669;50.982;11.022;2023-11-21T01:16:31;17.80;77.70
28837;DHT22;50669;50.982;11.022;2023-11-21T01:19:05;17.80;77.70
28837;DHT22;50669;50.982;11.022;2023-11-21T01:21:31;17.80;77.70
28837;DHT22;50669;50.982;11.022;2023-11-21T01:23:59;17.80;77.70
28837;DHT22;50669;50.982;11.022;2023-11-21T01:26:25;17.80;77.70
28837;DHT22;50669;50.982;11.022;2023-11-21T01:28:53;17.80;77.70
28837;DHT22;50669;50.982;11.022;2023-11-21T01:31:18;17.80;77.70
28837;DHT22;50669;50.982;11.022;2023-11-21T01:33:46;17.80;77.70
28837;DHT22;50669;50.982;11.022;2023-11-21T01:36:12;17.80;77.60
28837;DHT22;50669;50.982;11.022;2023-11-21T01:38:38;17.80;77.60
28837;DHT22;50669;50.982;11.022;2023-11-21T01:41:06;17.80;77.60
28837;DHT22;50669;50.982;11.022;2023-11-21T01:43:31;17.80;77.70
28837;DHT22;50669;50.982;11.022;2023-11-21T01:45:58;17.80;77.60
28837;DHT22;50669;50.982;11.022;2023-11-21T01:48:24;17.80;77.60
28837;DHT22;50669;50.982;11.022;2023-11-21T01:50:51;17.80;77.70
28837;DHT22;50669;50.982;11.022;2023-11-21T01:53:17;17.80;77.70
28837;DHT22;50669;50.982;11.022;2023-11-21T01:55:45;17.80;77.60
28837;DHT22;50669;50.982;11.022;2023-11-21T01:58:12;17.80;77.70
28837;DHT22;50669;50.982;11.022;2023-11-21T02:00:42;17.80;77.60
28837;DHT22;50669;50.982;11.022;2023-11-21T02:03:08;17.80;77.60
28837;DHT22;50669;50.982;11.022;2023-11-21T02:05:35;17.80;77.60
28837;DHT22;50669;50.982;11.022;2023-11-21T02:08:02;17.80;77.70
28837;DHT22;50669;50.982;11.022;2023-11-21T02:10:30;17.80;77.60
28837;DHT22;50669;50.982;11.022;2023-11-21T02:12:58;17.70;77.60
28837;DHT22;50669;50.982;11.022;2023-11-21T02:15:28;17.80;77.60
28837;DHT22;50669;50.982;11.022;2023-11-21T02:17:54;17.70;77.60
28837;DHT22;50669;50.982;11.022;2023-11-21T02:20:23;17.80;77.70
28837;DHT22;50669;50.982;11.022;2023-11-21T02:25:30;17.80;77.70
28837;DHT22;50669;50.982;11.022;2023-11-21T02:27:58;17.70;77.60
28837;DHT22;50669;50.982;11.022;2023-11-21T02:30:24;17.80;77.60
28837;DHT22;50669;50.982;11.022;2023-11-21T02:32:53;17.80;77.70
28837;DHT22;50669;50.982;11.022;2023-11-21T02:35:22;17.80;77.60
28837;DHT22;50669;50.982;11.022;2023-11-21T02:37:49;17.80;77.60
28837;DHT22;50669;50.982;11.022;2023-11-21T02:40:15;17.80;77.60
28837;DHT22;50669;50.982;11.022;2023-11-21T02:42:47;17.80;77.60
28837;DHT22;50669;50.982;11.022;2023-11-21T02:45:14;17.80;77.60
28837;DHT22;50669;50.982;11.022;2023-11-21T02:47:43;17.80;77.60
28837;DHT22;50669;50.982;11.022;2023-11-21T02:50:09;17.80;77.60
28837;DHT22;50669;50.982;11.022;2023-11-21T02:52:35;17.80;77.60
28837;DHT22;50669;50.982;11.022;2023-11-21T02:55:04;17.80;77.60
28837;DHT22;50669;50.982;11.022;2023-11-21T02:57:30;17.80;77.60
28837;DHT22;50669;50.982;11.022;2023-11-21T02:59:56;17.70;77.50
28837;DHT22;50669;50.982;11.022;2023-11-21T03:02:22;17.70;77.60
28837;DHT22;50669;50.982;11.022;2023-11-21T03:04:48;17.70;77.50
28837;DHT22;50669;50.982;11.022;2023-11-21T03:07:15;17.70;77.60
28837;DHT22;50669;50.982;11.022;2023-11-21T03:09:40;17.70;77.60
28837;DHT22;50669;50.982;11.022;2023-11-21T03:12:06;17.70;77.50
28837;DHT22;50669;50.982;11.022;2023-11-21T03:14:34;17.70;77.50
28837;DHT22;50669;50.982;11.022;2023-11-21T03:17:04;17.70;77.60
28837;DHT22;50669;50.982;11.022;2023-11-21T03:19:31;17.70;77.60
28837;DHT22;50669;50.982;11.022;2023-11-21T03:21:56;17.70;77.60
28837;DHT22;50669;50.982;11.022;2023-11-21T03:24:22;17.70;77.60
28837;DHT22;50669;50.982;11.022;2023-11-21T03:26:50;17.70;77.60
28837;DHT22;50669;50.982;11.022;2023-11-21T03:29:18;17.70;77.60
28837;DHT22;50669;50.982;11.022;2023-11-21T03:31:44;17.70;77.50
28837;DHT22;50669;50.982;11.022;2023-11-21T03:34:26;17.70;77.50
28837;DHT22;50669;50.982;11.022;2023-11-21T03:36:54;17.70;77.60
28837;DHT22;50669;50.982;11.022;2023-11-21T03:39:21;17.70;77.50
28837;DHT22;50669;50.982;11.022;2023-11-21T03:41:47;17.70;77.60
28837;DHT22;50669;50.982;11.022;2023-11-21T03:44:14;17.70;77.40
28837;DHT22;50669;50.982;11.022;2023-11-21T03:46:44;17.70;77.60
28837;DHT22;50669;50.982;11.022;2023-11-21T03:49:10;17.70;77.60
28837;DHT22;50669;50.982;11.022;2023-11-21T03:51:36;17.70;77.50
28837;DHT22;50669;50.982;11.022;2023-11-21T03:54:04;17.70;77.40
28837;DHT22;50669;50.982;11.022;2023-11-21T03:56:30;17.70;77.40
28837;DHT22;50669;50.982;11.022;2023-11-21T03:58:55;17.70;77.40
28837;DHT22;50669;50.982;11.022;2023-11-21T04:01:24;17.70;77.40
28837;DHT22;50669;50.982;11.022;2023-11-21T04:03:50;17.70;77.50
28837;DHT22;50669;50.982;11.022;2023-11-21T04:06:17;17.70;77.40
28837;DHT22;50669;50.982;11.022;2023-11-21T04:08:47;17.70;77.50
28837;DHT22;50669;50.982;11.022;2023-11-21T04:11:15;17.70;77.40
28837;DHT22;50669;50.982;11.022;2023-11-21T04:13:41;17.70;77.40
28837;DHT22;50669;50.982;11.022;2023-11-21T04:16:10;17.70;77.40
28837;DHT22;50669;50.982;11.022;2023-11-21T04:18:40;17.70;77.40
28837;DHT22;50669;50.982;11.022;2023-11-21T04:21:08;17.70;77.50
28837;DHT22;50669;50.982;11.022;2023-11-21T04:23:35;17.70;77.40
28837;DHT22;50669;50.982;11.022;2023-11-21T04:26:01;17.70;77.60
28837;DHT22;50669;50.982;11.022;2023-11-21T04:28:29;17.70;77.50
28837;DHT22;50669;50.982;11.022;2023-11-21T04:30:56;17.70;77.60
28837;DHT22;50669;50.982;11.022;2023-11-21T04:33:24;17.70;77.50
28837;DHT22;50669;50.982;11.022;2023-11-21T04:35:53;17.60;77.50
28837;DHT22;50669;50.982;11.022;2023-11-21T04:38:21;17.70;77.50
28837;DHT22;50669;50.982;11.022;2023-11-21T04:40:47;17.70;77.50
28837;DHT22;50669;50.982;11.022;2023-11-21T04:43:15;17.60;77.40
28837;DHT22;50669;50.982;11.022;2023-11-21T04:45:41;17.60;77.50
28837;DHT22;50669;50.982;11.022;2023-11-21T04:48:07;17.60;77.40
28837;DHT22;50669;50.982;11.022;2023-11-21T04:50:35;17.70;77.50
28837;DHT22;50669;50.982;11.022;2023-11-21T04:53:01;17.60;77.50
28837;DHT22;50669;50.982;11.022;2023-11-21T04:55:29;17.60;77.40
28837;DHT22;50669;50.982;11.022;2023-11-21T04:57:57;17.60;77.50
28837;DHT22;50669;50.982;11.022;2023-11-21T05:00:23;17.60;77.50
28837;DHT22;50669;50.982;11.022;2023-11-21T05:02:49;17.60;77.40
28837;DHT22;50669;50.982;11.022;2023-11-21T05:05:15;17.60;77.50
28837;DHT22;50669;50.982;11.022;2023-11-21T05:07:40;17.60;77.50
28837;DHT22;50669;50.982;11.022;2023-11-21T05:10:09;17.60;77.50
28837;DHT22;50669;50.982;11.022;2023-11-21T05:12:37;17.60;77.50
28837;DHT22;50669;50.982;11.022;2023-11-21T05:15:06;17.60;77.50
28837;DHT22;50669;50.982;11.022;2023-11-21T05:17:36;17.60;77.40
28837;DHT22;50669;50.982;11.022;2023-11-21T05:20:05;17.60;77.40
28837;DHT22;50669;50.982;11.022;2023-11-21T05:22:36;17.60;77.40
28837;DHT22;50669;50.982;11.022;2023-11-21T05:25:02;17.60;77.50
28837;DHT22;50669;50.982;11.022;2023-11-21T05:27:29;17.60;77.40
28837;DHT22;50669;50.982;11.022;2023-11-21T05:30:01;17.60;77.50
28837;DHT22;50669;50.982;11.022;2023-11-21T05:32:27;17.60;77.40
28837;DHT22;50669;50.982;11.022;2023-11-21T05:34:55;17.60;77.50
28837;DHT22;50669;50.982;11.022;2023-11-21T05:37:23;17.60;77.50
28837;DHT22;50669;50.982;11.022;2023-11-21T05:39:52;17.60;77.50
28837;DHT22;50669;50.982;11.022;2023-11-21T05:42:17;17.60;77.50
28837;DHT22;50669;50.982;11.022;2023-11-21T05:44:46;17.60;77.40
28837;DHT22;50669;50.982;11.022;2023-11-21T05:47:12;17.60;77.40
28837;DHT22;50669;50.982;11.022;2023-11-21T05:49:40;17.60;77.50
28837;DHT22;50669;50.982;11.022;2023-11-21T05:52:05;17.60;77.50
28837;DHT22;50669;50.982;11.022;2023-11-21T05:54:33;17.60;77.50
28837;DHT22;50669;50.982;11.022;2023-11-21T05:56:59;17.60;77.50
28837;DHT22;50669;50.982;11.022;2023-11-21T05:59:27;17.60;77.50
28837;DHT22;50669;50.982;11.022;2023-11-21T06:01:53;17.50;77.40
28837;DHT22;50669;50.982;11.022;2023-11-21T06:04:19;17.50;77.40
28837;DHT22;50669;50.982;11.022;2023-11-21T06:06:50;17.50;77.50
28837;DHT22;50669;50.982;11.022;2023-11-21T06:09:15;17.60;77.60
28837;DHT22;50669;50.982;11.022;2023-11-21T06:11:43;17.60;77.50
28837;DHT22;50669;50.982;11.022;2023-11-21T06:14:12;17.50;77.40
28837;DHT22;50669;50.982;11.022;2023-11-21T06:16:43;17.60;77.60
28837;DHT22;50669;50.982;11.022;2023-11-21T06:19:11;17.50;77.50
28837;DHT22;50669;50.982;11.022;2023-11-21T06:21:37;17.50;77.50
28837;DHT22;50669;50.982;11.022;2023-11-21T06:24:03;17.50;77.50
28837;DHT22;50669;50.982;11.022;2023-11-21T06:26:28;17.50;77.50
28837;DHT22;50669;50.982;11.022;2023-11-21T06:28:54;17.50;77.50
28837;DHT22;50669;50.982;11.022;2023-11-21T06:31:20;17.60;77.60
28837;DHT22;50669;50.982;11.022;2023-11-21T06:33:47;17.50;77.60
28837;DHT22;50669;50.982;11.022;2023-11-21T06:36:12;17.60;77.70
28837;DHT22;50669;50.982;11.022;2023-11-21T06:38:38;17.50;77.50
28837;DHT22;50669;50.982;11.022;2023-11-21T06:41:04;17.50;77.60
28837;DHT22;50669;50.982;11.022;2023-11-21T06:43:30;17.50;77.60
28837;DHT22;50669;50.982;11.022;2023-11-21T06:45:58;17.60;77.70
28837;DHT22;50669;50.982;11.022;2023-11-21T06:48:24;17.60;78.40
28837;DHT22;50669;50.982;11.022;2023-11-21T06:50:50;17.50;77.60
28837;DHT22;50669;50.982;11.022;2023-11-21T06:53:17;17.60;77.70
28837;DHT22;50669;50.982;11.022;2023-11-21T06:55:45;17.50;77.60
28837;DHT22;50669;50.982;11.022;2023-11-21T06:58:10;17.50;77.60
28837;DHT22;50669;50.982;11.022;2023-11-21T07:00:36;17.50;77.60
28837;DHT22;50669;50.982;11.022;2023-11-21T07:03:02;17.50;77.60
28837;DHT22;50669;50.982;11.022;2023-11-21T07:05:27;17.60;77.60
28837;DHT22;50669;50.982;11.022;2023-11-21T07:07:55;17.50;77.70
28837;DHT22;50669;50.982;11.022;2023-11-21T07:10:21;17.50;77.70
28837;DHT22;50669;50.982;11.022;2023-11-21T07:12:47;17.50;77.70
28837;DHT22;50669;50.982;11.022;2023-11-21T07:15:13;17.50;77.60
28837;DHT22;50669;50.982;11.022;2023-11-21T07:17:43;17.50;77.70
28837;DHT22;50669;50.982;11.022;2023-11-21T07:20:09;17.50;77.70
28837;DHT22;50669;50.982;11.022;2023-11-21T07:22:36;17.50;77.80
28837;DHT22;50669;50.982;11.022;2023-11-21T07:25:02;17.50;77.70
28837;DHT22;50669;50.982;11.022;2023-11-21T07:27:29;17.50;77.70
28837;DHT22;50669;50.982;11.022;2023-11-21T07:29:55;17.50;77.80
28837;DHT22;50669;50.982;11.022;2023-11-21T07:32:20;17.50;77.70
28837;DHT22;50669;50.982;11.022;2023-11-21T07:34:48;17.50;77.70
28837;DHT22;50669;50.982;11.022;2023-11-21T07:37:14;17.50;77.70
28837;DHT22;50669;50.982;11.022;2023-11-21T07:39:40;17.50;78.50
28837;DHT22;50669;50.982;11.022;2023-11-21T07:42:10;17.50;77.80
28837;DHT22;50669;50.982;11.022;2023-11-21T07:44:36;17.50;77.80
28837;DHT22;50669;50.982;11.022;2023-11-21T07:47:02;17.50;77.80
28837;DHT22;50669;50.982;11.022;2023-11-21T07:49:27;17.50;77.80
28837;DHT22;50669;50.982;11.022;2023-11-21T07:51:56;17.50;77.80
28837;DHT22;50669;50.982;11.022;2023-11-21T07:54:21;17.50;77.80
28837;DHT22;50669;50.982;11.022;2023-11-21T07:56:47;17.50;77.90
28837;DHT22;50669;50.982;11.022;2023-11-21T07:59:13;17.50;77.90
28837;DHT22;50669;50.982;11.022;2023-11-21T08:01:39;17.50;77.90
28837;DHT22;50669;50.982;11.022;2023-11-21T08:04:08;17.50;77.80
28837;DHT22;50669;50.982;11.022;2023-11-21T08:06:34;17.50;77.80
28837;DHT22;50669;50.982;11.022;2023-11-21T08:09:00;17.40;77.70
28837;DHT22;50669;50.982;11.022;2023-11-21T08:11:25;17.50;77.90
28837;DHT22;50669;50.982;11.022;2023-11-21T08:13:54;17.50;77.90
28837;DHT22;50669;50.982;11.022;2023-11-21T08:16:20;17.50;77.90
28837;DHT22;50669;50.982;11.022;2023-11-21T08:18:46;17.50;77.90
28837;DHT22;50669;50.982;11.022;2023-11-21T08:21:15;17.50;77.90
28837;DHT22;50669;50.982;11.022;2023-11-21T08:23:42;17.50;78.00
28837;DHT22;50669;50.982;11.022;2023-11-21T08:26:08;17.50;77.90
28837;DHT22;50669;50.982;11.022;2023-11-21T08:28:34;17.50;77.90
28837;DHT22;50669;50.982;11.022;2023-11-21T08:31:01;17.50;77.90
28837;DHT22;50669;50.982;11.022;2023-11-21T08:33:26;17.50;77.90
28837;DHT22;50669;50.982;11.022;2023-11-21T08:35:54;17.50;78.00
28837;DHT22;50669;50.982;11.022;2023-11-21T08:38:20;17.50;77.90
28837;DHT22;50669;50.982;11.022;2023-11-21T08:40:46;17.50;77.90
28837;DHT22;50669;50.982;11.022;2023-11-21T08:43:11;17.50;78.00
28837;DHT22;50669;50.982;11.022;2023-11-21T08:45:37;17.50;77.90
28837;DHT22;50669;50.982;11.022;2023-11-21T08:48:03;17.50;77.80
28837;DHT22;50669;50.982;11.022;2023-11-21T08:50:31;17.50;78.70
28837;DHT22;50669;50.982;11.022;2023-11-21T08:52:59;17.50;77.80
28837;DHT22;50669;50.982;11.022;2023-11-21T08:55:24;17.50;78.00
28837;DHT22;50669;50.982;11.022;2023-11-21T08:57:50;17.50;77.90
28837;DHT22;50669;50.982;11.022;2023-11-21T09:00:18;17.50;77.90
28837;DHT22;50669;50.982;11.022;2023-11-21T09:02:44;17.50;77.90
28837;DHT22;50669;50.982;11.022;2023-11-21T09:05:13;17.50;78.00
28837;DHT22;50669;50.982;11.022;2023-11-21T09:07:41;17.50;78.00
28837;DHT22;50669;50.982;11.022;2023-11-21T09:10:07;17.50;77.90
28837;DHT22;50669;50.982;11.022;2023-11-21T09:12:35;17.50;77.90
28837;DHT22;50669;50.982;11.022;2023-11-21T09:15:07;17.50;78.00
28837;DHT22;50669;50.982;11.022;2023-11-21T09:17:36;17.50;78.00
28837;DHT22;50669;50.982;11.022;2023-11-21T09:20:05;17.50;78.00
28837;DHT22;50669;50.982;11.022;2023-11-21T09:22:31;17.50;78.00
28837;DHT22;50669;50.982;11.022;2023-11-21T09:24:57;17.50;78.00
28837;DHT22;50669;50.982;11.022;2023-11-21T09:27:23;17.50;78.00
28837;DHT22;50669;50.982;11.022;2023-11-21T09:29:49;17.50;78.00
28837;DHT22;50669;50.982;11.022;2023-11-21T09:32:18;17.50;78.00
28837;DHT22;50669;50.982;11.022;2023-11-21T09:34:47;17.50;78.00
28837;DHT22;50669;50.982;11.022;2023-11-21T09:37:13;17.50;78.00
28837;DHT22;50669;50.982;11.022;2023-11-21T09:39:40;17.50;78.70
28837;DHT22;50669;50.982;11.022;2023-11-21T09:42:25;17.50;78.00
28837;DHT22;50669;50.982;11.022;2023-11-21T09:47:35;17.50;78.00
28837;DHT22;50669;50.982;11.022;2023-11-21T09:50:06;17.50;78.00
28837;DHT22;50669;50.982;11.022;2023-11-21T09:55:25;17.50;78.00
28837;DHT22;50669;50.982;11.022;2023-11-21T09:57:53;17.50;78.00
28837;DHT22;50669;50.982;11.022;2023-11-21T10:00:19;17.50;78.00
28837;DHT22;50669;50.982;11.022;2023-11-21T10:02:46;17.50;78.00
28837;DHT22;50669;50.982;11.022;2023-11-21T10:05:17;17.50;78.00
28837;DHT22;50669;50.982;11.022;2023-11-21T10:07:46;17.50;78.00
28837;DHT22;50669;50.982;11.022;2023-11-21T10:10:13;17.50;78.00
28837;DHT22;50669;50.982;11.022;2023-11-21T10:12:43;17.50;78.00
28837;DHT22;50669;50.982;11.022;2023-11-21T10:15:12;17.50;78.10
28837;DHT22;50669;50.982;11.022;2023-11-21T10:17:44;17.50;77.90
28837;DHT22;50669;50.982;11.022;2023-11-21T10:20:11;17.50;78.00
28837;DHT22;50669;50.982;11.022;2023-11-21T10:22:45;17.50;78.00
28837;DHT22;50669;50.982;11.022;2023-11-21T10:25:11;17.50;78.00
28837;DHT22;50669;50.982;11.022;2023-11-21T10:27:40;17.50;78.00
28837;DHT22;50669;50.982;11.022;2023-11-21T10:30:07;17.50;78.00
28837;DHT22;50669;50.982;11.022;2023-11-21T10:32:36;17.50;78.00
28837;DHT22;50669;50.982;11.022;2023-11-21T10:35:06;17.50;78.00
28837;DHT22;50669;50.982;11.022;2023-11-21T10:37:38;17.50;78.00
28837;DHT22;50669;50.982;11.022;2023-11-21T10:40:10;17.50;78.00
28837;DHT22;50669;50.982;11.022;2023-11-21T10:42:41;17.50;78.00
28837;DHT22;50669;50.982;11.022;2023-11-21T10:45:09;17.50;78.00
28837;DHT22;50669;50.982;11.022;2023-11-21T10:47:43;17.50;78.00
28837;DHT22;50669;50.982;11.022;2023-11-21T10:50:09;17.50;78.00
28837;DHT22;50669;50.982;11.022;2023-11-21T10:52:39;17.50;78.00
28837;DHT22;50669;50.982;11.022;2023-11-21T10:55:18;17.50;78.00
28837;DHT22;50669;50.982;11.022;2023-11-21T10:57:49;17.50;78.00
28837;DHT22;50669;50.982;11.022;2023-11-21T11:00:17;17.50;78.00
28837;DHT22;50669;50.982;11.022;2023-11-21T11:02:49;17.50;78.00
28837;DHT22;50669;50.982;11.022;2023-11-21T11:05:19;17.50;78.00
28837;DHT22;50669;50.982;11.022;2023-11-21T11:07:48;17.50;78.00
28837;DHT22;50669;50.982;11.022;2023-11-21T11:10:14;17.60;78.00
28837;DHT22;50669;50.982;11.022;2023-11-21T11:12:42;17.50;78.00
28837;DHT22;50669;50.982;11.022;2023-11-21T11:15:08;17.50;78.00
28837;DHT22;50669;50.982;11.022;2023-11-21T11:17:37;17.50;78.00
28837;DHT22;50669;50.982;11.022;2023-11-21T11:20:12;17.60;78.10
28837;DHT22;50669;50.982;11.022;2023-11-21T11:28:47;17.60;78.00
28837;DHT22;50669;50.982;11.022;2023-11-21T11:34:38;17.60;78.00
28837;DHT22;50669;50.982;11.022;2023-11-21T11:37:12;17.60;78.00
28837;DHT22;50669;50.982;11.022;2023-11-21T11:39:40;17.60;78.00
28837;DHT22;50669;50.982;11.022;2023-11-21T11:42:11;17.60;78.00
28837;DHT22;50669;50.982;11.022;2023-11-21T11:47:25;17.60;77.90
28837;DHT22;50669;50.982;11.022;2023-11-21T11:50:11;17.60;77.90
28837;DHT22;50669;50.982;11.022;2023-11-21T11:52:46;17.60;77.90
28837;DHT22;50669;50.982;11.022;2023-11-21T11:55:15;17.60;77.90
28837;DHT22;50669;50.982;11.022;2023-11-21T11:57:51;17.70;77.90
28837;DHT22;50669;50.982;11.022;2023-11-21T12:03:01;17.70;77.80
28837;DHT22;50669;50.982;11.022;2023-11-21T12:05:32;17.70;77.90
28837;DHT22;50669;50.982;11.022;2023-11-21T12:08:11;17.70;77.90
28837;DHT22;50669;50.982;11.022;2023-11-21T12:10:38;17.70;77.90
28837;DHT22;50669;50.982;11.022;2023-11-21T12:13:09;17.70;77.80
28837;DHT22;50669;50.982;11.022;2023-11-21T12:15:38;17.80;77.90
28837;DHT22;50669;50.982;11.022;2023-11-21T12:18:07;17.80;77.90
28837;DHT22;50669;50.982;11.022;2023-11-21T12:20:35;17.80;77.80
28837;DHT22;50669;50.982;11.022;2023-11-21T12:23:09;17.80;77.90
28837;DHT22;50669;50.982;11.022;2023-11-21T12:25:35;17.90;77.90
28837;DHT22;50669;50.982;11.022;2023-11-21T12:28:02;17.90;77.90
28837;DHT22;50669;50.982;11.022;2023-11-21T12:30:32;17.90;77.80
28837;DHT22;50669;50.982;11.022;2023-11-21T12:33:01;17.90;77.80
28837;DHT22;50669;50.982;11.022;2023-11-21T12:35:29;17.90;77.80
28837;DHT22;50669;50.982;11.022;2023-11-21T12:37:59;17.90;77.70
28837;DHT22;50669;50.982;11.022;2023-11-21T12:40:28;18.00;77.80
28837;DHT22;50669;50.982;11.022;2023-11-21T12:42:58;18.00;77.80
28837;DHT22;50669;50.982;11.022;2023-11-21T12:45:28;18.00;77.80
28837;DHT22;50669;50.982;11.022;2023-11-21T12:48:00;18.00;77.70
28837;DHT22;50669;50.982;11.022;2023-11-21T12:50:33;18.00;77.80
28837;DHT22;50669;50.982;11.022;2023-11-21T12:55:33;18.10;77.80
28837;DHT22;50669;50.982;11.022;2023-11-21T12:58:02;18.10;77.80
28837;DHT22;50669;50.982;11.022;2023-11-21T13:00:47;18.10;77.80
28837;DHT22;50669;50.982;11.022;2023-11-21T13:03:17;18.10;77.70
28837;DHT22;50669;50.982;11.022;2023-11-21T13:05:48;18.10;77.70
28837;DHT22;50669;50.982;11.022;2023-11-21T13:08:19;18.20;77.70
28837;DHT22;50669;50.982;11.022;2023-11-21T13:10:55;18.20;77.70
28837;DHT22;50669;50.982;11.022;2023-11-21T13:13:24;18.20;77.70
28837;DHT22;50669;50.982;11.022;2023-11-21T13:15:54;18.30;77.70
28837;DHT22;50669;50.982;11.022;2023-11-21T13:18:26;18.30;77.70
28837;DHT22;50669;50.982;11.022;2023-11-21T13:20:53;18.30;77.60
28837;DHT22;50669;50.982;11.022;2023-11-21T13:23:20;18.30;77.60
28837;DHT22;50669;50.982;11.022;2023-11-21T13:25:48;18.30;77.60
28837;DHT22;50669;50.982;11.022;2023-11-21T13:28:15;18.30;77.60
28837;DHT22;50669;50.982;11.022;2023-11-21T13:30:42;18.30;77.60
28837;DHT22;50669;50.982;11.022;2023-11-21T13:33:10;18.30;77.60
28837;DHT22;50669;50.982;11.022;2023-11-21T13:35:41;18.40;77.50
28837;DHT22;50669;50.982;11.022;2023-11-21T13:38:17;18.40;77.50
28837;DHT22;50669;50.982;11.022;2023-11-21T13:40:48;18.40;77.50
28837;DHT22;50669;50.982;11.022;2023-11-21T13:43:18;18.50;77.40
28837;DHT22;50669;50.982;11.022;2023-11-21T13:45:45;18.50;77.40
28837;DHT22;50669;50.982;11.022;2023-11-21T13:48:12;18.50;77.40
28837;DHT22;50669;50.982;11.022;2023-11-21T13:50:45;18.50;77.30
28837;DHT22;50669;50.982;11.022;2023-11-21T13:53:24;18.50;77.30
28837;DHT22;50669;50.982;11.022;2023-11-21T13:55:50;18.50;77.30
28837;DHT22;50669;50.982;11.022;2023-11-21T13:58:17;18.60;77.30
28837;DHT22;50669;50.982;11.022;2023-11-21T14:00:47;18.60;77.30
28837;DHT22;50669;50.982;11.022;2023-11-21T14:03:17;18.60;77.30
28837;DHT22;50669;50.982;11.022;2023-11-21T14:05:47;18.60;77.30
28837;DHT22;50669;50.982;11.022;2023-11-21T14:08:20;18.60;77.30
28837;DHT22;50669;50.982;11.022;2023-11-21T14:10:47;18.60;77.30
28837;DHT22;50669;50.982;11.022;2023-11-21T14:13:17;18.70;77.20
28837;DHT22;50669;50.982;11.022;2023-11-21T14:15:43;18.70;77.20
28837;DHT22;50669;50.982;11.022;2023-11-21T14:18:11;18.70;77.20
28837;DHT22;50669;50.982;11.022;2023-11-21T14:20:42;18.70;77.10
28837;DHT22;50669;50.982;11.022;2023-11-21T14:23:10;18.70;77.10
28837;DHT22;50669;50.982;11.022;2023-11-21T14:25:37;18.70;77.00
28837;DHT22;50669;50.982;11.022;2023-11-21T14:28:04;18.70;77.10
28837;DHT22;50669;50.982;11.022;2023-11-21T14:30:34;18.80;77.10
28837;DHT22;50669;50.982;11.022;2023-11-21T14:33:03;18.80;77.10
28837;DHT22;50669;50.982;11.022;2023-11-21T14:35:29;18.80;77.00
28837;DHT22;50669;50.982;11.022;2023-11-21T14:37:58;18.80;77.00
28837;DHT22;50669;50.982;11.022;2023-11-21T14:40:24;18.80;77.00
28837;DHT22;50669;50.982;11.022;2023-11-21T14:42:51;18.90;77.00
28837;DHT22;50669;50.982;11.022;2023-11-21T14:45:20;18.90;77.00
28837;DHT22;50669;50.982;11.022;2023-11-21T14:47:49;18.90;76.90
28837;DHT22;50669;50.982;11.022;2023-11-21T14:50:28;18.90;76.90
28837;DHT22;50669;50.982;11.022;2023-11-21T14:53:06;19.00;77.00
28837;DHT22;50669;50.982;11.022;2023-11-21T14:55:35;19.00;76.90
28837;DHT22;50669;50.982;11.022;2023-11-21T14:58:22;19.00;77.00
28837;DHT22;50669;50.982;11.022;2023-11-21T15:00:57;19.00;76.90
28837;DHT22;50669;50.982;11.022;2023-11-21T15:03:25;19.00;76.90
28837;DHT22;50669;50.982;11.022;2023-11-21T15:06:00;19.00;76.90
28837;DHT22;50669;50.982;11.022;2023-11-21T15:08:44;19.00;76.80
28837;DHT22;50669;50.982;11.022;2023-11-21T15:11:13;19.00;76.80
28837;DHT22;50669;50.982;11.022;2023-11-21T15:13:41;19.10;76.80
28837;DHT22;50669;50.982;11.022;2023-11-21T15:16:09;19.10;76.90
28837;DHT22;50669;50.982;11.022;2023-11-21T15:18:37;19.20;77.00
28837;DHT22;50669;50.982;11.022;2023-11-21T15:21:04;19.20;76.90
28837;DHT22;50669;50.982;11.022;2023-11-21T15:23:32;19.20;76.90
28837;DHT22;50669;50.982;11.022;2023-11-21T15:26:00;19.20;76.90
28837;DHT22;50669;50.982;11.022;2023-11-21T15:28:29;19.20;76.70
28837;DHT22;50669;50.982;11.022;2023-11-21T15:30:57;19.20;76.80
28837;DHT22;50669;50.982;11.022;2023-11-21T15:33:23;19.30;77.50
28837;DHT22;50669;50.982;11.022;2023-11-21T15:35:48;19.30;76.90
28837;DHT22;50669;50.982;11.022;2023-11-21T15:38:14;19.30;76.90
28837;DHT22;50669;50.982;11.022;2023-11-21T15:40:40;19.30;76.80
28837;DHT22;50669;50.982;11.022;2023-11-21T15:43:06;19.40;76.90
28837;DHT22;50669;50.982;11.022;2023-11-21T15:45:36;19.40;76.90